Time;durP1;ratioP1;P1;durP2;ratioP2;P2;SDS_P1;SDS_P2;PMS_P1;PMS_P2;Temp;Humidity;BMP_temperature;BMP_pressure;BME280_temperature;BME280_humidity;BME280_pressure;Samples;Min_cycle;Max_cycle;Signal;HPM_P1;HPM_P2
2020/12/31 00:02:19;;;;;;;56.55;32.70;;;6.20;96.00;;;;;;5106717;28;20196;-67
2020/12/31 00:04:45;;;;;;;;;;;6.20;96.00;;;;;;5106569;28;20395;-65
2020/12/31 00:07:10;;;;;;;67.70;38.92;;;6.10;95.90;;;;;;5105931;28;19928;-66
2020/12/31 00:09:36;;;;;;;;;;;6.10;96.00;;;;;;5100532;28;20023;-66
2020/12/31 00:12:05;;;;;;;45.55;28.08;;;6.20;96.10;;;;;;5095027;28;20375;-66
2020/12/31 00:14:31;;;;;;;44.50;27.35;;;6.20;96.10;;;;;;5106496;28;20303;-72
2020/12/31 00:16:56;;;;;;;;;;;6.20;96.10;;;;;;5106295;28;20168;-66
2020/12/31 00:19:22;;;;;;;38.90;22.75;;;6.20;96.00;;;;;;5106369;28;20438;-66
2020/12/31 00:21:47;;;;;;;;;;;6.30;95.50;;;;;;5087524;28;20024;-66
2020/12/31 00:24:13;;;;;;;46.53;23.90;;;6.30;95.30;;;;;;5104759;28;19993;-65
2020/12/31 00:26:38;;;;;;;;;;;6.20;95.30;;;;;;5064058;28;20039;-67
2020/12/31 00:29:04;;;;;;;44.30;25.35;;;6.20;95.30;;;;;;5086015;28;20303;-66
2020/12/31 00:31:30;;;;;;;;;;;6.20;95.50;;;;;;5067961;28;20028;-66
2020/12/31 00:33:55;;;;;;;53.78;28.55;;;6.20;95.40;;;;;;5085921;28;20315;-66
2020/12/31 00:36:21;;;;;;;;;;;6.20;95.40;;;;;;5069992;28;20361;-66
2020/12/31 00:38:51;;;;;;;45.63;26.50;;;6.10;95.40;;;;;;5089669;28;19914;-66
2020/12/31 00:41:20;;;;;;;46.33;24.67;;;6.10;95.40;;;;;;5089429;28;20024;-66
2020/12/31 00:43:46;;;;;;;45.97;24.63;;;6.10;95.50;;;;;;5089630;28;20506;-65
2020/12/31 00:46:12;;;;;;;36.08;22.60;;;6.10;95.40;;;;;;5089398;28;20496;-66
2020/12/31 00:48:38;;;;;;;;;;;6.20;95.40;;;;;;5089771;28;20069;-65
2020/12/31 00:51:03;;;;;;;27.95;17.08;;;6.20;95.20;;;;;;5089475;28;20292;-67
2020/12/31 00:53:29;;;;;;;;;;;6.30;95.10;;;;;;5071760;28;20059;-66
2020/12/31 00:55:54;;;;;;;53.50;30.35;;;6.30;95.10;;;;;;5089072;28;19945;-66
2020/12/31 00:58:20;;;;;;;;;;;6.20;95.20;;;;;;5089570;28;20036;-66
2020/12/31 01:00:45;;;;;;;59.58;30.55;;;6.20;95.30;;;;;;5089348;28;19908;-66
2020/12/31 01:03:12;;;;;;;;;;;6.20;95.40;;;;;;5089686;28;20107;-65
2020/12/31 01:05:37;;;;;;;39.08;23.73;;;6.20;95.40;;;;;;5088509;28;19904;-66
2020/12/31 01:08:03;;;;;;;;;;;6.20;95.40;;;;;;5089602;28;20043;-66
2020/12/31 01:10:29;;;;;;;31.38;19.73;;;6.20;95.40;;;;;;5088452;28;19911;-66
2020/12/31 01:12:54;;;;;;;;;;;6.30;95.40;;;;;;5089632;28;20031;-66
2020/12/31 01:15:20;;;;;;;18.17;11.73;;;6.30;94.90;;;;;;5089076;28;20427;-66
2020/12/31 01:17:45;;;;;;;;;;;6.30;94.70;;;;;;5089418;28;20509;-66
2020/12/31 01:20:11;;;;;;;13.38;10.52;;;6.30;94.60;;;;;;5088631;28;19908;-66
2020/12/31 01:22:37;;;;;;;;;;;6.30;94.60;;;;;;5089465;28;20107;-67
2020/12/31 01:25:04;;;;;;;15.63;10.38;;;6.20;94.70;;;;;;5088200;28;20011;-66
2020/12/31 01:27:30;;;;;;;15.45;10.48;;;6.10;94.90;;;;;;5088837;28;20063;-66
2020/12/31 01:29:55;;;;;;;;;;;6.10;95.00;;;;;;5089031;28;20060;-66
2020/12/31 01:32:22;;;;;;;17.33;8.73;;;6.10;95.10;;;;;;5088515;28;19972;-66
2020/12/31 01:34:48;;;;;;;12.82;9.55;;;6.10;95.10;;;;;;5088585;28;20489;-67
2020/12/31 01:37:15;;;;;;;;;;;6.10;95.10;;;;;;5088613;28;20017;-66
2020/12/31 01:39:41;;;;;;;19.15;11.57;;;6.20;95.10;;;;;;5088421;28;19907;-67
2020/12/31 01:42:06;;;;;;;;;;;6.10;95.10;;;;;;5070614;28;20570;-67
2020/12/31 01:44:32;;;;;;;20.50;12.70;;;6.20;95.20;;;;;;5088551;28;19922;-67
2020/12/31 01:46:59;;;;;;;;;;;6.20;95.30;;;;;;5069548;28;20036;-67
2020/12/31 01:49:26;;;;;;;27.15;15.15;;;6.10;95.30;;;;;;5088393;28;19919;-66
2020/12/31 01:51:51;;;;;;;21.25;13.70;;;6.20;95.30;;;;;;5088171;28;20036;-67
2020/12/31 01:54:18;;;;;;;;;;;6.10;95.30;;;;;;5070447;28;20054;-66
2020/12/31 01:56:44;;;;;;;21.13;12.30;;;6.20;95.10;;;;;;5070100;28;20420;-67
2020/12/31 01:59:10;;;;;;;;;;;6.20;95.30;;;;;;5070207;28;20031;-66
2020/12/31 02:01:36;;;;;;;24.52;14.57;;;6.20;95.00;;;;;;5088497;28;19908;-66
2020/12/31 02:04:02;;;;;;;;;;;6.20;95.00;;;;;;5088328;28;20446;-67
2020/12/31 02:06:28;;;;;;;21.63;14.25;;;6.20;94.90;;;;;;5088033;28;20281;-66
2020/12/31 02:08:54;;;;;;;17.48;12.18;;;6.20;94.90;;;;;;5087288;28;20113;-66
2020/12/31 02:11:21;;;;;;;;;;;6.20;95.00;;;;;;5088485;28;20056;-66
2020/12/31 02:13:47;;;;;;;;;;;6.20;94.90;;;;;;5088547;28;19961;-66
2020/12/31 02:16:14;;;;;;;14.43;9.77;;;6.20;94.90;;;;;;5087894;28;19907;-65
2020/12/31 02:18:54;;;;;;;13.38;9.40;;;6.30;94.80;;;;;;5087337;28;20495;-65
2020/12/31 02:21:24;;;;;;;15.88;9.13;;;6.30;94.60;;;;;;5069396;28;20400;-66
2020/12/31 02:23:50;;;;;;;17.48;10.27;;;6.30;94.50;;;;;;5087361;28;20028;-66
2020/12/31 02:26:16;;;;;;;;;;;6.30;94.60;;;;;;5070025;28;20408;-65
2020/12/31 02:28:41;;;;;;;18.33;11.70;;;6.20;94.70;;;;;;5069205;28;19908;-66
2020/12/31 02:31:07;;;;;;;;;;;6.20;94.80;;;;;;5069924;28;20028;-66
2020/12/31 02:33:32;;;;;;;19.35;11.85;;;6.20;94.80;;;;;;5087576;28;19911;-66
2020/12/31 02:35:58;;;;;;;;;;;6.20;94.90;;;;;;5069791;28;20059;-66
2020/12/31 02:38:24;;;;;;;15.60;10.75;;;6.20;95.00;;;;;;5086841;28;19908;-66
2020/12/31 02:40:49;;;;;;;;;;;6.20;95.10;;;;;;5087816;28;20526;-66
2020/12/31 02:43:15;;;;;;;19.15;10.32;;;6.10;95.10;;;;;;5087389;28;20360;-67
2020/12/31 02:45:41;;;;;;;;;;;6.20;95.10;;;;;;5087903;28;20631;-66
2020/12/31 02:48:06;;;;;;;14.77;9.52;;;6.20;95.00;;;;;;5068546;28;19961;-66
2020/12/31 02:50:32;;;;;;;;;;;6.20;95.00;;;;;;5087841;28;20103;-67
2020/12/31 02:52:57;;;;;;;15.50;10.73;;;6.20;95.00;;;;;;5086814;28;19908;-66
2020/12/31 02:55:23;;;;;;;;;;;6.20;95.00;;;;;;5087285;28;20063;-66
2020/12/31 02:57:48;;;;;;;23.08;13.07;;;6.20;95.00;;;;;;5087095;28;19904;-66
2020/12/31 03:00:14;;;;;;;;;;;6.10;95.10;;;;;;5087301;28;20035;-67
2020/12/31 03:02:40;;;;;;;27.63;14.57;;;6.10;95.20;;;;;;5087080;28;19904;-67
2020/12/31 03:05:05;;;;;;;;;;;6.10;95.20;;;;;;5087580;28;20231;-66
2020/12/31 03:07:31;;;;;;;22.38;14.63;;;6.10;95.20;;;;;;5086485;28;20439;-67
2020/12/31 03:09:56;;;;;;;;;;;6.10;95.20;;;;;;5086886;28;20073;-67
2020/12/31 03:12:22;;;;;;;20.55;11.93;;;6.00;95.20;;;;;;5086987;28;19960;-67
2020/12/31 03:14:47;;;;;;;;;;;6.00;95.50;;;;;;5086912;28;20519;-67
2020/12/31 03:17:13;;;;;;;21.63;11.75;;;6.00;95.30;;;;;;5086724;28;19912;-66
2020/12/31 03:19:38;;;;;;;;;;;5.90;95.50;;;;;;5086792;28;20161;-67
2020/12/31 03:22:04;;;;;;;19.95;10.60;;;5.90;95.20;;;;;;5086411;28;19919;-66
2020/12/31 03:24:29;;;;;;;;;;;5.80;95.20;;;;;;5086782;28;20573;-67
2020/12/31 03:26:55;;;;;;;19.10;11.00;;;5.80;95.20;;;;;;5086487;28;19916;-66
2020/12/31 03:29:22;;;;;;;14.57;10.57;;;5.80;95.30;;;;;;5086365;28;20048;-66
2020/12/31 03:31:47;;;;;;;;;;;5.80;95.30;;;;;;5087103;28;20115;-67
2020/12/31 03:34:13;;;;;;;16.80;9.48;;;5.80;95.70;;;;;;5086195;28;19908;-67
2020/12/31 03:36:38;;;;;;;;;;;5.80;95.40;;;;;;5086956;28;20028;-66
2020/12/31 03:39:05;;;;;;;21.27;12.70;;;5.80;95.50;;;;;;5085787;28;19917;-66
2020/12/31 03:41:30;;;;;;;22.23;12.85;;;5.80;95.50;;;;;;5086397;28;20035;-66
2020/12/31 03:43:56;;;;;;;;;;;5.80;95.50;;;;;;5086430;28;20036;-66
2020/12/31 03:46:21;;;;;;;17.80;12.23;;;5.80;95.70;;;;;;5086404;28;20298;-67
2020/12/31 03:48:47;;;;;;;;;;;5.90;95.30;;;;;;5086919;28;20036;-66
2020/12/31 03:51:12;;;;;;;17.67;10.05;;;5.90;95.20;;;;;;5086022;28;19908;-64
2020/12/31 03:53:38;;;;;;;;;;;5.90;95.20;;;;;;5086373;28;20586;-66
2020/12/31 03:56:03;;;;;;;15.50;9.10;;;5.90;95.20;;;;;;5086427;28;20031;-66
2020/12/31 03:58:29;;;;;;;;;;;5.80;95.20;;;;;;5086611;28;20038;-67
2020/12/31 04:00:55;;;;;;;16.17;10.27;;;5.90;95.40;;;;;;5067883;28;19908;-66
2020/12/31 04:03:20;;;;;;;;;;;5.80;95.30;;;;;;5086340;28;20107;-68
2020/12/31 04:05:46;;;;;;;14.05;8.63;;;5.80;95.40;;;;;;5086387;28;19961;-66
2020/12/31 04:08:11;;;;;;;;;;;5.80;95.50;;;;;;5067610;28;20115;-66
2020/12/31 04:10:37;;;;;;;19.33;9.02;;;5.80;95.40;;;;;;5086922;28;19908;-67
2020/12/31 04:13:02;;;;;;;;;;;5.80;95.50;;;;;;5090700;28;20102;-66
2020/12/31 04:15:28;;;;;;;17.25;10.38;;;5.80;95.50;;;;;;5089906;28;19908;-66
2020/12/31 04:17:53;;;;;;;;;;;5.80;95.50;;;;;;5090739;28;20536;-66
2020/12/31 04:20:19;;;;;;;22.40;9.43;;;5.80;95.50;;;;;;5089784;28;20114;-66
2020/12/31 04:22:44;;;;;;;;;;;5.80;95.30;;;;;;5090000;28;20032;-67
2020/12/31 04:25:10;;;;;;;10.13;7.10;;;5.80;95.00;;;;;;5089511;28;19927;-66
2020/12/31 04:27:35;;;;;;;;;;;5.90;94.70;;;;;;5090474;28;20040;-67
2020/12/31 04:30:02;;;;;;;9.05;6.55;;;5.80;94.60;;;;;;5089956;28;19908;-66
2020/12/31 04:32:27;;;;;;;9.48;6.75;;;5.80;94.70;;;;;;5089558;28;20468;-67
2020/12/31 04:34:53;;;;;;;;;;;5.80;94.70;;;;;;5090303;28;20024;-64
2020/12/31 04:37:18;;;;;;;10.43;7.22;;;5.80;94.80;;;;;;5089690;28;19931;-67
2020/12/31 04:39:44;;;;;;;;;;;5.80;94.90;;;;;;5090380;28;20028;-67
2020/12/31 04:42:10;;;;;;;11.52;7.40;;;5.80;95.00;;;;;;5089275;28;19919;-67
2020/12/31 04:44:36;;;;;;;;;;;5.90;94.80;;;;;;5090106;28;20043;-66
2020/12/31 04:47:04;;;;;;;10.27;7.13;;;5.90;94.60;;;;;;5089472;28;19969;-67
2020/12/31 04:49:43;;;;;;;10.73;7.25;;;5.90;94.60;;;;;;5089395;28;20051;-66
2020/12/31 04:52:10;;;;;;;13.75;8.35;;;5.90;94.50;;;;;;5089159;28;20024;-66
2020/12/31 04:54:38;;;;;;;12.27;8.18;;;6.00;94.40;;;;;;5089196;28;20099;-66
2020/12/31 04:57:05;;;;;;;10.25;7.22;;;6.00;94.40;;;;;;5070734;28;20032;-67
2020/12/31 04:59:31;;;;;;;12.65;6.28;;;6.00;94.40;;;;;;5089473;28;20035;-66
2020/12/31 05:01:56;;;;;;;;;;;6.00;94.30;;;;;;5089857;28;20024;-66
2020/12/31 05:04:23;;;;;;;10.23;6.93;;;6.10;94.20;;;;;;5070856;28;19908;-67
2020/12/31 05:06:52;;;;;;;14.57;7.80;;;6.00;94.30;;;;;;5088578;28;20040;-67
2020/12/31 05:09:20;;;;;;;18.48;11.30;;;6.00;94.30;;;;;;5070555;28;20031;-67
2020/12/31 05:11:48;;;;;;;27.00;16.52;;;5.90;94.50;;;;;;5070942;28;20032;-66
2020/12/31 05:14:48;;;;;;;44.05;21.50;;;5.90;94.60;;;;;;5089091;28;20024;-67
2020/12/31 05:17:19;;;;;;;43.80;21.25;;;5.90;94.70;;;;;;5055746;28;20119;-66
2020/12/31 05:19:45;;;;;;;39.33;20.85;;;5.90;94.80;;;;;;5070914;28;20042;-66
2020/12/31 05:22:12;;;;;;;39.63;21.42;;;5.90;94.90;;;;;;5087281;28;20085;-67
2020/12/31 05:24:43;;;;;;;24.52;14.85;;;5.90;95.00;;;;;;5088723;28;20098;-66
2020/12/31 05:27:26;;;;;;;20.10;11.48;;;5.80;95.00;;;;;;5088586;28;20067;-67
2020/12/31 05:30:00;;;;;;;18.15;9.63;;;5.90;95.00;;;;;;5088556;28;20095;-67
2020/12/31 05:32:32;;;;;;;11.75;8.07;;;5.80;94.90;;;;;;5088896;28;20020;-67
2020/12/31 05:34:58;;;;;;;11.23;7.82;;;5.80;95.00;;;;;;5088488;28;20026;-67
2020/12/31 05:37:27;;;;;;;10.65;7.03;;;5.80;95.00;;;;;;5087955;28;20044;-67
2020/12/31 05:39:59;;;;;;;10.02;6.65;;;5.90;95.10;;;;;;5088680;28;20019;-66
2020/12/31 05:42:27;;;;;;;12.55;7.50;;;5.80;95.10;;;;;;5070123;28;20032;-67
2020/12/31 05:45:08;;;;;;;11.00;6.00;;;5.80;95.10;;;;;;5088500;28;20103;-67
2020/12/31 05:47:35;;;;;;;10.95;6.72;;;5.90;95.10;;;;;;5088446;28;20027;-67
2020/12/31 05:50:20;;;;;;;8.95;6.22;;;5.90;95.10;;;;;;5088302;28;20020;-66
2020/12/31 05:52:47;;;;;;;10.68;7.32;;;5.90;95.10;;;;;;5069473;28;20032;-68
2020/12/31 05:55:18;;;;;;;9.68;7.18;;;5.90;94.90;;;;;;5088291;28;20593;-67
2020/12/31 05:57:55;;;;;;;12.98;8.82;;;5.90;94.90;;;;;;5088331;28;20051;-66
2020/12/31 06:00:26;;;;;;;11.25;7.60;;;5.90;95.00;;;;;;5088335;28;20153;-67
2020/12/31 06:02:56;;;;;;;28.13;14.73;;;5.80;95.00;;;;;;5088124;28;20028;-66
2020/12/31 06:05:23;;;;;;;35.30;19.08;;;5.80;95.00;;;;;;5087994;28;20034;-67
2020/12/31 06:07:55;;;;;;;47.65;23.35;;;5.80;95.10;;;;;;5068737;28;20409;-67
2020/12/31 06:10:25;;;;;;;58.78;28.17;;;5.80;95.10;;;;;;5087747;28;20462;-67
2020/12/31 06:13:00;;;;;;;43.22;22.45;;;5.80;95.10;;;;;;5087516;28;20032;-67
2020/12/31 06:15:31;;;;;;;30.95;17.48;;;5.80;95.20;;;;;;5087515;28;20099;-66
2020/12/31 06:17:58;;;;;;;47.78;23.52;;;5.80;95.10;;;;;;5087996;28;20024;-66
2020/12/31 06:20:26;;;;;;;52.78;25.58;;;5.80;95.20;;;;;;5087842;28;20035;-67
2020/12/31 06:23:08;;;;;;;48.00;21.58;;;5.80;95.20;;;;;;5087342;28;20115;-66
2020/12/31 06:25:42;;;;;;;32.08;17.52;;;5.80;95.10;;;;;;5069082;28;20062;-66
2020/12/31 06:28:22;;;;;;;28.75;14.50;;;5.80;95.10;;;;;;5087569;28;20036;-67
2020/12/31 06:30:49;;;;;;;31.83;16.05;;;5.80;95.00;;;;;;5087499;28;20036;-67
2020/12/31 06:33:39;;;;;;;34.55;17.92;;;5.80;94.90;;;;;;5086991;28;20054;-66
2020/12/31 06:36:05;;;;;;;53.78;28.90;;;5.80;94.80;;;;;;5068828;28;20043;-67
2020/12/31 06:38:35;;;;;;;;;;;5.80;94.80;;;;;;5069683;28;20488;-67
2020/12/31 06:41:02;;;;;;;35.25;18.17;;;5.80;94.70;;;;;;5087272;28;19996;-66
2020/12/31 06:43:38;;;;;;;27.60;15.80;;;5.80;94.70;;;;;;5087344;28;20039;-67
2020/12/31 06:46:20;;;;;;;28.20;15.02;;;5.80;94.70;;;;;;5087319;28;20099;-67
2020/12/31 06:48:53;;;;;;;21.30;12.45;;;5.80;94.80;;;;;;5087373;28;20074;-67
2020/12/31 06:51:28;;;;;;;20.08;12.45;;;5.80;94.70;;;;;;5086589;28;20024;-68
2020/12/31 06:53:53;;;;;;;21.60;15.23;;;5.80;94.70;;;;;;5087290;28;20024;-66
2020/12/31 06:56:37;;;;;;;;;;;5.80;94.80;;;;;;5087676;28;20089;-67
2020/12/31 06:59:32;;;;;;;25.42;18.02;;;5.80;94.80;;;;;;5087456;28;19904;-65
2020/12/31 07:02:19;;;;;;;23.55;16.90;;;5.80;94.70;;;;;;5087127;28;20504;-66
2020/12/31 07:04:45;;;;;;;13.88;9.73;;;5.90;94.60;;;;;;5087042;28;20024;-67
2020/12/31 07:07:19;;;;;;;25.42;11.05;;;5.90;94.60;;;;;;5086601;28;20055;-66
2020/12/31 07:09:56;;;;;;;16.02;10.07;;;5.90;94.50;;;;;;5086533;28;20043;-66
2020/12/31 07:12:51;;;;;;;16.98;10.27;;;5.80;94.40;;;;;;5087041;28;20036;-67
2020/12/31 07:15:17;;;;;;;13.02;8.07;;;5.80;94.60;;;;;;5055338;28;20048;-67
2020/12/31 07:17:45;;;;;;;15.45;9.35;;;5.80;94.70;;;;;;5068407;28;20503;-66
2020/12/31 07:20:13;;;;;;;13.45;8.30;;;5.80;94.70;;;;;;5086415;28;20380;-67
2020/12/31 07:22:40;;;;;;;16.15;9.45;;;5.80;94.90;;;;;;5086726;28;20472;-67
2020/12/31 07:25:10;;;;;;;14.90;9.82;;;5.90;94.90;;;;;;5086436;28;20745;-67
2020/12/31 07:27:47;;;;;;;22.38;14.25;;;5.90;95.00;;;;;;5086329;28;20503;-67
2020/12/31 07:30:17;;;;;;;40.38;24.35;;;5.90;94.90;;;;;;5086460;28;20446;-66
2020/12/31 07:33:00;;;;;;;59.13;32.55;;;6.00;94.90;;;;;;5085989;28;20035;-67
2020/12/31 07:35:39;;;;;;;67.85;36.22;;;6.00;94.80;;;;;;5086146;28;20027;-66
2020/12/31 07:38:06;;;;;;;70.25;37.97;;;6.00;94.80;;;;;;5086602;28;20107;-67
2020/12/31 07:40:43;;;;;;;56.78;33.72;;;6.00;94.80;;;;;;5068627;28;20118;-67
2020/12/31 07:43:14;;;;;;;52.97;32.42;;;6.00;94.60;;;;;;5086686;28;20031;-67
2020/12/31 07:45:47;;;;;;;40.42;26.52;;;6.10;94.50;;;;;;5066917;28;20028;-67
2020/12/31 07:48:14;;;;;;;33.33;20.83;;;6.10;94.30;;;;;;5086355;28;20557;-67
2020/12/31 07:50:39;;;;;;;;;;;6.10;94.30;;;;;;5086008;28;20047;-67
2020/12/31 07:53:08;;;;;;;53.22;32.63;;;6.20;94.30;;;;;;5086222;28;19958;-68
2020/12/31 07:55:35;;;;;;;51.58;32.88;;;6.20;94.40;;;;;;5086268;28;20052;-67
2020/12/31 07:58:02;;;;;;;35.33;23.02;;;6.30;94.30;;;;;;5068134;28;20073;-67
2020/12/31 08:00:27;;;;;;;34.13;23.80;;;6.30;94.30;;;;;;5068167;28;20460;-67
2020/12/31 08:02:55;;;;;;;;;;;6.30;94.20;;;;;;5068190;28;20116;-67
2020/12/31 08:05:25;;;;;;;14.48;8.73;;;6.30;94.10;;;;;;5085796;28;20014;-66
2020/12/31 08:07:56;;;;;;;13.68;8.85;;;6.40;94.00;;;;;;5086294;28;20032;-67
2020/12/31 08:10:22;;;;;;;16.13;8.30;;;6.40;93.80;;;;;;5085942;28;20027;-67
2020/12/31 08:13:17;;;;;;;9.85;7.22;;;6.50;93.80;;;;;;5086014;28;20043;-66
2020/12/31 08:15:53;;;;;;;18.20;14.80;;;6.50;93.80;;;;;;5083744;28;20050;-67
2020/12/31 08:18:23;;;;;;;18.10;14.63;;;6.60;93.70;;;;;;5086049;28;20080;-68
2020/12/31 08:20:51;;;;;;;15.95;10.95;;;6.60;93.60;;;;;;5086194;28;20069;-67
2020/12/31 08:23:27;;;;;;;17.08;11.63;;;6.70;93.70;;;;;;5094708;28;20019;-67
2020/12/31 08:25:56;;;;;;;18.83;12.35;;;6.70;93.70;;;;;;5094278;28;20466;-67
2020/12/31 08:28:22;;;;;;;11.68;8.80;;;6.70;93.70;;;;;;5093908;28;20053;-67
2020/12/31 08:30:48;;;;;;;11.25;8.45;;;6.80;93.70;;;;;;5095654;28;20031;-67
2020/12/31 08:33:25;;;;;;;16.70;12.85;;;6.80;93.70;;;;;;5094397;28;20035;-68
2020/12/31 08:35:52;;;;;;;31.90;21.95;;;6.90;93.80;;;;;;5075349;28;20096;-67
2020/12/31 08:38:19;;;;;;;34.47;23.65;;;7.00;93.80;;;;;;5076634;28;20035;-67
2020/12/31 08:40:51;;;;;;;46.92;29.75;;;7.10;93.80;;;;;;5092962;28;20032;-68
2020/12/31 08:43:35;;;;;;;44.13;27.95;;;7.20;93.70;;;;;;5094397;28;20020;-67
2020/12/31 08:46:01;;;;;;;38.20;25.95;;;7.30;93.80;;;;;;5076360;28;20239;-68
2020/12/31 08:48:32;;;;;;;34.78;23.15;;;7.30;93.60;;;;;;5093590;28;20837;-68
2020/12/31 08:51:11;;;;;;;26.17;18.60;;;7.40;93.50;;;;;;5093809;28;20562;-67
2020/12/31 08:53:53;;;;;;;26.40;16.98;;;7.40;93.40;;;;;;5094552;28;20028;-67
2020/12/31 08:56:20;;;;;;;25.52;17.10;;;7.40;93.20;;;;;;5095272;28;20034;-68
2020/12/31 08:58:46;;;;;;;29.95;19.17;;;7.40;93.00;;;;;;5096789;28;20500;-67
2020/12/31 09:01:22;;;;;;;;;;;7.40;93.00;;;;;;5081425;28;20039;-67
2020/12/31 09:03:48;;;;;;;28.67;18.75;;;7.40;92.90;;;;;;5098910;28;20437;-68
2020/12/31 09:06:21;;;;;;;;;;;7.40;92.90;;;;;;5097424;28;20032;-67
2020/12/31 09:08:48;;;;;;;29.08;17.23;;;7.40;92.60;;;;;;5078720;28;20414;-67
2020/12/31 09:11:14;;;;;;;23.90;17.20;;;7.40;92.90;;;;;;5080035;28;20148;-67
2020/12/31 09:13:40;;;;;;;;;;;7.40;92.80;;;;;;5080734;28;20214;-67
2020/12/31 09:16:07;;;;;;;33.65;20.90;;;7.40;92.70;;;;;;5096430;28;20948;-68
2020/12/31 09:18:32;;;;;;;29.13;20.10;;;7.40;92.90;;;;;;5078883;28;20020;-68
2020/12/31 09:20:58;;;;;;;;;;;7.40;93.00;;;;;;5104418;28;20514;-67
2020/12/31 09:23:23;;;;;;;30.48;19.60;;;7.40;92.90;;;;;;5108875;28;20379;-67
2020/12/31 09:25:50;;;;;;;;;;;7.50;92.90;;;;;;5091388;28;20047;-64
2020/12/31 09:28:16;;;;;;;30.25;20.70;;;7.40;92.60;;;;;;5108442;28;20567;-67
2020/12/31 09:30:43;;;;;;;39.20;27.17;;;7.40;92.90;;;;;;5090951;28;20115;-67
2020/12/31 09:33:08;;;;;;;38.00;23.98;;;7.40;92.90;;;;;;5091357;28;20511;-67
2020/12/31 09:35:34;;;;;;;;;;;7.30;92.70;;;;;;5103298;28;20032;-67
2020/12/31 09:38:00;;;;;;;50.42;32.22;;;7.40;92.70;;;;;;5105578;28;19933;-67
2020/12/31 09:40:25;;;;;;;;;;;7.40;92.50;;;;;;5103701;28;20576;-67
2020/12/31 09:42:51;;;;;;;48.50;33.70;;;7.30;92.70;;;;;;5099200;28;19904;-67
2020/12/31 09:45:17;;;;;;;;;;;7.30;92.90;;;;;;5080179;28;20028;-67
2020/12/31 09:47:43;;;;;;;35.55;23.73;;;7.30;92.70;;;;;;5100056;28;19912;-67
2020/12/31 09:50:09;;;;;;;;;;;7.30;92.70;;;;;;5108497;28;20019;-67
2020/12/31 09:52:36;;;;;;;40.35;21.80;;;7.30;93.30;;;;;;5109394;28;19957;-66
2020/12/31 09:55:02;;;;;;;33.95;23.65;;;7.30;92.90;;;;;;5108056;28;20504;-67
2020/12/31 09:57:28;;;;;;;;;;;7.30;92.80;;;;;;5109137;28;20027;-67
2020/12/31 09:59:53;;;;;;;33.30;22.30;;;7.30;92.90;;;;;;5108857;28;20391;-66
2020/12/31 10:02:19;;;;;;;;;;;7.30;93.00;;;;;;5108733;28;20024;-67
2020/12/31 10:04:45;;;;;;;35.78;23.77;;;7.30;93.30;;;;;;5107931;28;20288;-67
2020/12/31 10:07:10;;;;;;;;;;;7.30;93.20;;;;;;5108496;28;20146;-66
2020/12/31 10:09:36;;;;;;;24.73;15.38;;;7.40;93.50;;;;;;5107841;28;20003;-67
2020/12/31 10:12:01;;;;;;;;;;;7.50;93.50;;;;;;5108883;28;20153;-66
2020/12/31 10:14:27;;;;;;;22.17;15.15;;;7.50;93.50;;;;;;5108086;28;19942;-65
2020/12/31 10:16:52;;;;;;;;;;;7.60;93.40;;;;;;5108167;28;20424;-67
2020/12/31 10:19:18;;;;;;;21.88;14.82;;;7.60;93.20;;;;;;5093965;28;19905;-66
2020/12/31 10:21:45;;;;;;;22.00;13.88;;;7.70;93.20;;;;;;5087841;28;20105;-67
2020/12/31 10:24:11;;;;;;;19.67;13.38;;;7.80;93.10;;;;;;5087216;28;20068;-66
2020/12/31 10:26:37;;;;;;;;;;;7.90;93.10;;;;;;5069837;28;20097;-66
2020/12/31 10:29:03;;;;;;;26.08;17.20;;;8.00;92.90;;;;;;5087514;28;19912;-67
2020/12/31 10:31:28;;;;;;;;;;;8.10;92.80;;;;;;5088085;28;20157;-68
2020/12/31 10:33:54;;;;;;;32.20;22.30;;;8.20;92.20;;;;;;5087254;28;20369;-68
2020/12/31 10:36:19;;;;;;;;;;;8.20;92.10;;;;;;5069420;28;20484;-66
2020/12/31 10:38:45;;;;;;;42.05;25.60;;;8.40;91.90;;;;;;5087150;28;19916;-66
2020/12/31 10:41:13;;;;;;;;;;;8.50;91.80;;;;;;5088887;28;20032;-66
2020/12/31 10:43:40;;;;;;;103.35;70.28;;;8.50;91.30;;;;;;5087433;28;20663;-67
2020/12/31 10:46:05;;;;;;;55.83;36.38;;;8.60;91.60;;;;;;5068991;28;20028;-68
2020/12/31 10:48:31;;;;;;;;;;;8.60;91.60;;;;;;5087394;28;20044;-66
2020/12/31 10:51:00;;;;;;;51.15;35.33;;;8.70;91.40;;;;;;5068188;28;19970;-66
2020/12/31 10:53:26;;;;;;;30.27;19.83;;;8.80;91.00;;;;;;5086901;28;20028;-67
2020/12/31 10:55:51;;;;;;;29.42;19.58;;;8.90;91.00;;;;;;5068771;28;20024;-66
2020/12/31 10:58:17;;;;;;;;;;;8.90;91.00;;;;;;5087308;28;20500;-67
2020/12/31 11:00:42;;;;;;;23.65;17.45;;;8.90;90.60;;;;;;5087797;28;19908;-66
2020/12/31 11:03:08;;;;;;;;;;;9.00;90.80;;;;;;5068411;28;20024;-67
2020/12/31 11:05:34;;;;;;;19.80;13.75;;;9.00;90.30;;;;;;5086513;28;19908;-67
2020/12/31 11:07:59;;;;;;;;;;;9.00;90.60;;;;;;5069663;28;20055;-66
2020/12/31 11:10:25;;;;;;;26.23;17.23;;;9.00;90.60;;;;;;5086523;28;19912;-66
2020/12/31 11:12:50;;;;;;;;;;;9.00;90.60;;;;;;5087475;28;20534;-67
2020/12/31 11:15:16;;;;;;;26.10;17.33;;;9.00;90.20;;;;;;5086773;28;19908;-67
2020/12/31 11:17:42;;;;;;;;;;;9.00;90.10;;;;;;5087173;28;20020;-67
2020/12/31 11:20:07;;;;;;;24.00;17.77;;;9.00;89.60;;;;;;5085235;28;20287;-67
2020/12/31 11:22:33;;;;;;;;;;;9.10;90.10;;;;;;5087098;28;20107;-67
2020/12/31 11:24:59;;;;;;;27.77;18.92;;;9.00;90.00;;;;;;5065044;28;20338;-67
2020/12/31 11:27:24;;;;;;;;;;;9.00;89.60;;;;;;5066520;28;20045;-67
2020/12/31 11:29:51;;;;;;;27.10;17.75;;;9.00;89.50;;;;;;5065363;28;19908;-67
2020/12/31 11:32:17;;;;;;;31.15;20.88;;;9.00;89.50;;;;;;5066167;28;20048;-67
2020/12/31 11:34:42;;;;;;;24.60;17.05;;;9.00;89.90;;;;;;5065921;28;20548;-66
2020/12/31 11:37:08;;;;;;;;;;;9.10;89.70;;;;;;5066800;28;20040;-67
2020/12/31 11:39:34;;;;;;;45.28;29.70;;;9.10;88.70;;;;;;5066064;28;19908;-67
2020/12/31 11:42:00;;;;;;;;;;;9.20;88.70;;;;;;5065443;28;20039;-67
2020/12/31 11:44:25;;;;;;;40.85;29.77;;;9.10;85.80;;;;;;5066328;28;19908;-67
2020/12/31 11:46:51;;;;;;;;;;;9.10;86.90;;;;;;5066664;28;20020;-67
2020/12/31 11:49:18;;;;;;;20.63;15.02;;;9.20;87.10;;;;;;5064236;28;19916;-66
2020/12/31 11:51:44;;;;;;;21.50;15.27;;;9.30;87.10;;;;;;5066132;28;20028;-67
2020/12/31 11:54:09;;;;;;;;;;;9.40;87.10;;;;;;5066775;28;20377;-67
2020/12/31 11:56:35;;;;;;;24.00;16.95;;;9.30;86.40;;;;;;5066168;28;19912;-67
2020/12/31 11:59:01;;;;;;;;;;;9.30;86.80;;;;;;5066189;28;20028;-67
2020/12/31 12:01:27;;;;;;;97.95;63.22;;;9.30;86.60;;;;;;5066262;28;19909;-68
2020/12/31 12:03:52;;;;;;;78.35;49.97;;;9.30;86.90;;;;;;5065723;28;20029;-67
2020/12/31 12:06:18;;;;;;;;;;;9.30;87.10;;;;;;5066546;28;20028;-67
2020/12/31 12:08:44;;;;;;;68.25;44.47;;;9.30;87.40;;;;;;5065969;28;19912;-67
2020/12/31 12:11:09;;;;;;;;;;;9.30;87.60;;;;;;5066412;28;20162;-67
2020/12/31 12:13:35;;;;;;;30.45;21.40;;;9.20;87.60;;;;;;5064979;28;19962;-67
2020/12/31 12:16:00;;;;;;;;;;;9.00;88.30;;;;;;5066426;28;20554;-68
2020/12/31 12:18:26;;;;;;;29.10;19.05;;;9.00;88.80;;;;;;5065697;28;19908;-67
2020/12/31 12:20:52;;;;;;;29.02;19.92;;;8.90;89.30;;;;;;5065302;28;20105;-67
2020/12/31 12:23:19;;;;;;;;;;;8.80;90.00;;;;;;5066336;28;20036;-67
2020/12/31 12:25:45;;;;;;;29.50;20.40;;;8.70;90.20;;;;;;5079363;28;19963;-68
2020/12/31 12:28:10;;;;;;;;;;;8.70;90.30;;;;;;5086456;28;20106;-67
2020/12/31 12:30:36;;;;;;;30.80;20.55;;;8.60;90.50;;;;;;5085931;28;19961;-68
2020/12/31 12:33:02;;;;;;;;;;;8.50;90.50;;;;;;5089381;28;20032;-68
2020/12/31 12:35:28;;;;;;;39.33;26.38;;;8.40;91.00;;;;;;5089584;28;19904;-67
2020/12/31 12:37:54;;;;;;;;;;;8.40;91.30;;;;;;5090412;28;20495;-68
2020/12/31 12:40:20;;;;;;;41.75;28.13;;;8.40;91.40;;;;;;5071070;28;19908;-68
2020/12/31 12:42:46;;;;;;;;;;;8.50;91.50;;;;;;5089656;28;20070;-67
2020/12/31 12:45:13;;;;;;;44.92;28.17;;;8.50;91.40;;;;;;5089794;28;19933;-67
2020/12/31 12:47:39;;;;;;;35.70;24.95;;;8.50;91.10;;;;;;5088758;28;20031;-67
2020/12/31 12:50:05;;;;;;;;;;;8.50;91.20;;;;;;5089736;28;20511;-68
2020/12/31 12:52:31;;;;;;;42.97;30.40;;;8.50;91.50;;;;;;5089611;28;19908;-69
2020/12/31 12:54:57;;;;;;;;;;;8.50;91.30;;;;;;5089629;28;20038;-68
2020/12/31 12:57:23;;;;;;;39.10;25.23;;;8.50;91.40;;;;;;5089543;28;20002;-70
2020/12/31 12:59:48;;;;;;;;;;;8.50;91.30;;;;;;5090005;28;20381;-67
2020/12/31 13:02:14;;;;;;;43.30;26.88;;;8.50;91.40;;;;;;5088704;28;19908;-69
2020/12/31 13:04:41;;;;;;;;;;;8.50;91.20;;;;;;5089469;28;20496;-68
2020/12/31 13:07:06;;;;;;;34.58;21.23;;;8.50;91.30;;;;;;5070994;28;19918;-68
2020/12/31 13:09:32;;;;;;;;;;;8.40;91.40;;;;;;5089435;28;20102;-68
2020/12/31 13:11:58;;;;;;;40.80;27.02;;;8.40;91.40;;;;;;5089163;28;20390;-69
2020/12/31 13:14:23;;;;;;;;;;;8.40;91.60;;;;;;5089831;28;20658;-68